createdAt,value
2019-05-30T00:00:53.894Z,10.00
2019-05-30T00:03:25.481Z,9.38
2019-05-30T00:05:58.324Z,8.25
2019-05-30T00:08:30.057Z,8.40
2019-05-30T00:11:02.791Z,8.80
2019-05-30T00:13:34.449Z,9.13
2019-05-30T00:16:06.223Z,8.88
2019-05-30T00:18:38.007Z,9.13
2019-05-30T00:21:09.658Z,13.45
2019-05-30T00:23:41.351Z,9.85
2019-05-30T00:26:16.410Z,13.43
2019-05-30T00:28:47.868Z,9.33
2019-05-30T00:31:19.629Z,12.07
2019-05-30T00:33:51.424Z,8.48
2019-05-30T00:36:23.302Z,12.45
2019-05-30T00:38:55.625Z,9.35
2019-05-30T00:41:27.471Z,9.58
2019-05-30T00:43:59.930Z,9.68
2019-05-30T00:46:31.737Z,8.83
2019-05-30T00:49:04.505Z,10.85
2019-05-30T00:51:36.114Z,11.33
2019-05-30T00:54:07.970Z,10.05
2019-05-30T00:56:39.752Z,9.80
2019-05-30T00:59:11.541Z,9.45
2019-05-30T01:01:43.300Z,13.22
2019-05-30T01:04:14.995Z,13.15
2019-05-30T01:06:46.666Z,9.20
2019-05-30T01:09:18.426Z,13.18
2019-05-30T01:11:50.223Z,8.65
2019-05-30T01:14:21.999Z,12.15
2019-05-30T01:16:53.774Z,10.70
2019-05-30T01:19:25.657Z,10.13
2019-05-30T01:21:57.412Z,8.83
2019-05-30T01:24:29.289Z,11.45
2019-05-30T01:27:01.370Z,11.12
2019-05-30T01:29:33.270Z,10.00
2019-05-30T01:32:07.616Z,12.63
2019-05-30T01:34:39.361Z,12.58
2019-05-30T01:37:11.063Z,11.63
2019-05-30T01:39:42.729Z,14.63
2019-05-30T01:42:14.503Z,12.18
2019-05-30T01:44:46.284Z,12.43
2019-05-30T01:47:18.144Z,7.50
2019-05-30T01:49:49.921Z,10.98
2019-05-30T01:52:22.020Z,8.93
2019-05-30T01:54:53.797Z,9.50
2019-05-30T01:57:25.572Z,11.78
2019-05-30T01:59:58.616Z,8.28
2019-05-30T02:02:30.251Z,8.23
2019-05-30T02:05:03.022Z,6.90
2019-05-30T02:07:34.911Z,8.00
2019-05-30T02:10:07.440Z,7.62
2019-05-30T02:12:38.906Z,7.95
2019-05-30T02:15:10.957Z,8.13
2019-05-30T02:17:42.529Z,9.88
2019-05-30T02:20:15.361Z,10.55
2019-05-30T02:22:46.800Z,6.00
2019-05-30T02:25:19.127Z,6.42
2019-05-30T02:27:50.574Z,6.83
2019-05-30T02:30:22.537Z,6.53
2019-05-30T02:32:54.519Z,10.30
2019-05-30T02:35:26.524Z,10.90
2019-05-30T02:37:58.389Z,14.40
2019-05-30T02:40:31.199Z,13.15
2019-05-30T02:43:03.690Z,14.78
2019-05-30T02:45:35.893Z,7.17
2019-05-30T02:48:09.700Z,13.25
2019-05-30T02:50:41.374Z,10.30
2019-05-30T02:53:14.177Z,13.72
2019-05-30T02:55:45.931Z,21.45
2019-05-30T02:58:17.708Z,16.00
2019-05-30T03:00:49.413Z,15.28
2019-05-30T03:03:21.181Z,11.85
2019-05-30T03:05:52.938Z,12.07
2019-05-30T03:08:24.933Z,13.68
2019-05-30T03:10:56.615Z,10.58
2019-05-30T03:13:28.589Z,8.00
2019-05-30T03:16:01.949Z,6.65
2019-05-30T03:18:33.258Z,11.97
2019-05-30T03:21:06.397Z,6.60
2019-05-30T03:23:38.725Z,9.33
2019-05-30T03:26:12.988Z,7.55
2019-05-30T03:28:43.967Z,8.38
2019-05-30T03:31:27.669Z,7.80
2019-05-30T03:33:51.522Z,8.53
2019-05-30T03:36:30.107Z,10.65
2019-05-30T03:38:56.891Z,11.35
2019-05-30T03:41:28.875Z,12.03
2019-05-30T03:44:00.951Z,12.13
2019-05-30T03:46:35.269Z,8.85
2019-05-30T03:49:10.742Z,9.23
2019-05-30T03:51:45.923Z,7.50
2019-05-30T03:54:18.999Z,6.47
2019-05-30T03:57:09.161Z,11.60
2019-05-30T03:59:47.818Z,9.90
2019-05-30T04:02:22.357Z,6.37
2019-05-30T04:05:03.278Z,6.55
2019-05-30T04:07:37.980Z,10.35
2019-05-30T04:10:13.411Z,8.48
2019-05-30T04:12:56.899Z,12.80
2019-05-30T04:15:36.137Z,9.18
2019-05-30T04:18:09.444Z,23.73
2019-05-30T04:20:40.980Z,7.20
2019-05-30T04:23:14.649Z,6.85
2019-05-30T04:25:46.172Z,12.93
2019-05-30T04:28:18.685Z,19.55
2019-05-30T04:30:50.581Z,54.80
2019-05-30T04:33:32.599Z,40.20
2019-05-30T04:35:55.579Z,13.85
2019-05-30T04:38:27.414Z,32.75
2019-05-30T04:40:59.194Z,25.68
2019-05-30T04:43:30.981Z,36.03
2019-05-30T04:46:02.837Z,11.40
2019-05-30T04:48:34.644Z,11.20
2019-05-30T04:51:06.409Z,9.30
2019-05-30T04:53:38.186Z,8.25
2019-05-30T04:56:10.353Z,5.22
2019-05-30T04:58:42.983Z,9.15
2019-05-30T05:01:15.538Z,6.37
2019-05-30T05:03:47.422Z,14.47
2019-05-30T05:06:19.880Z,19.35
2019-05-30T05:08:51.708Z,13.05
2019-05-30T05:11:25.390Z,10.20
2019-05-30T05:13:56.697Z,10.70
2019-05-30T05:16:35.411Z,11.05
2019-05-30T05:19:01.584Z,12.68
2019-05-30T05:21:33.353Z,10.10
2019-05-30T05:24:05.027Z,9.43
2019-05-30T05:26:36.789Z,11.33
2019-05-30T05:29:08.586Z,14.93
2019-05-30T05:31:40.235Z,7.55
2019-05-30T05:34:12.031Z,5.83
2019-05-30T05:36:43.925Z,11.25
2019-05-30T05:39:16.151Z,6.58
2019-05-30T05:41:48.060Z,7.85
2019-05-30T05:44:20.367Z,7.22
2019-05-30T05:46:52.141Z,9.70
2019-05-30T05:49:24.927Z,9.98
2019-05-30T05:51:56.599Z,7.92
2019-05-30T05:54:29.247Z,6.58
2019-05-30T05:57:02.121Z,8.30
2019-05-30T05:59:33.879Z,9.03
2019-05-30T06:02:05.769Z,9.93
2019-05-30T06:04:37.538Z,4.37
2019-05-30T06:07:09.213Z,10.08
2019-05-30T06:09:40.990Z,8.63
2019-05-30T06:12:12.747Z,8.75
2019-05-30T06:14:44.439Z,13.05
2019-05-30T06:17:16.966Z,5.55
2019-05-30T06:19:48.694Z,4.42
2019-05-30T06:22:21.441Z,6.50
2019-05-30T06:24:52.963Z,6.53
2019-05-30T06:27:26.041Z,6.05
2019-05-30T06:29:57.644Z,8.13
2019-05-30T06:32:29.436Z,17.70
2019-05-30T06:35:01.194Z,7.10
2019-05-30T06:37:32.990Z,14.50
2019-05-30T06:40:06.504Z,8.45
2019-05-30T06:42:37.973Z,7.83
2019-05-30T06:45:10.624Z,6.30
2019-05-30T06:47:42.140Z,5.00
2019-05-30T06:50:14.165Z,4.05
2019-05-30T06:52:45.902Z,6.00
2019-05-30T06:55:17.702Z,5.90
2019-05-30T06:57:49.860Z,7.20
2019-05-30T07:00:22.205Z,7.65
2019-05-30T07:02:54.181Z,14.75
2019-05-30T07:05:27.870Z,12.10
2019-05-30T07:07:59.010Z,5.00
2019-05-30T07:10:31.138Z,13.22
2019-05-30T07:13:02.975Z,8.58
2019-05-30T07:15:37.348Z,4.97
2019-05-30T07:18:09.391Z,5.60
2019-05-30T07:20:41.151Z,4.92
2019-05-30T07:23:12.930Z,8.65
2019-05-30T07:25:44.722Z,6.50
2019-05-30T07:28:23.705Z,7.67
2019-05-30T07:30:56.802Z,14.23
2019-05-30T07:33:28.525Z,5.15
2019-05-30T07:36:00.460Z,7.83
2019-05-30T07:38:32.643Z,4.53
2019-05-30T07:41:04.772Z,9.80
2019-05-30T07:43:36.146Z,8.03
2019-05-30T07:46:08.003Z,5.00
2019-05-30T07:48:41.072Z,6.78
2019-05-30T07:51:15.073Z,5.87
2019-05-30T07:53:46.746Z,5.83
2019-05-30T07:56:18.519Z,4.42
2019-05-30T07:58:51.303Z,12.30
2019-05-30T08:01:23.076Z,6.15
2019-05-30T08:03:54.965Z,12.70
2019-05-30T08:06:27.470Z,10.30
2019-05-30T08:08:59.348Z,11.25
2019-05-30T08:11:31.110Z,8.10
2019-05-30T08:14:02.879Z,7.42
2019-05-30T08:16:35.493Z,8.18
2019-05-30T08:19:07.251Z,6.65
2019-05-30T08:21:38.946Z,10.23
2019-05-30T08:24:10.719Z,7.58
2019-05-30T08:26:42.497Z,4.67
2019-05-30T08:29:14.272Z,6.83
2019-05-30T08:31:46.053Z,5.85
2019-05-30T08:34:17.839Z,5.85
2019-05-30T08:36:49.251Z,12.65
2019-05-30T08:39:20.691Z,3.70
2019-05-30T08:41:52.068Z,8.98
2019-05-30T08:44:23.793Z,8.78
2019-05-30T08:46:55.573Z,6.87
2019-05-30T08:49:27.156Z,6.28
2019-05-30T08:51:58.922Z,8.38
2019-05-30T08:54:30.812Z,26.87
2019-05-30T08:57:02.590Z,7.03
2019-05-30T08:59:34.531Z,5.75
2019-05-30T09:02:06.449Z,5.72
2019-05-30T09:04:38.042Z,6.10
2019-05-30T09:07:10.194Z,5.45
2019-05-30T09:09:42.482Z,3.98
2019-05-30T09:12:13.966Z,8.35
2019-05-30T09:14:46.853Z,3.47
2019-05-30T09:17:18.667Z,3.83
2019-05-30T09:19:50.409Z,3.08
2019-05-30T09:22:22.300Z,6.15
2019-05-30T09:24:54.078Z,5.05
2019-05-30T09:27:25.855Z,9.70
2019-05-30T09:29:57.630Z,6.90
2019-05-30T09:32:29.408Z,5.08
2019-05-30T09:35:01.193Z,4.78
2019-05-30T09:37:32.842Z,7.65
2019-05-30T09:40:07.598Z,7.45
2019-05-30T09:42:40.823Z,9.33
2019-05-30T09:45:15.041Z,4.85
2019-05-30T09:47:47.499Z,6.67
2019-05-30T09:50:20.509Z,5.87
2019-05-30T09:52:52.434Z,5.33
2019-05-30T09:55:25.576Z,3.77
2019-05-30T09:57:56.989Z,4.40
2019-05-30T10:00:30.155Z,4.17
2019-05-30T10:03:01.550Z,5.72
2019-05-30T10:05:33.444Z,7.70
2019-05-30T10:08:05.550Z,5.90
2019-05-30T10:10:36.984Z,6.55
2019-05-30T10:13:08.673Z,4.42
2019-05-30T10:15:40.867Z,5.00
2019-05-30T10:18:12.518Z,4.85
2019-05-30T10:20:44.451Z,6.22
2019-05-30T10:23:17.210Z,4.25
2019-05-30T10:25:49.537Z,4.78
2019-05-30T10:28:21.380Z,7.15
2019-05-30T10:30:57.268Z,5.28
2019-05-30T10:33:26.551Z,8.65
2019-05-30T10:35:58.450Z,5.50
2019-05-30T10:38:30.206Z,3.77
2019-05-30T10:41:01.981Z,3.67
2019-05-30T10:43:33.760Z,12.78
2019-05-30T10:46:05.559Z,2.95
2019-05-30T10:48:37.213Z,9.10
2019-05-30T10:51:09.002Z,3.90
2019-05-30T10:53:40.784Z,16.37
2019-05-30T10:56:13.291Z,6.78
2019-05-30T10:58:46.588Z,3.80
2019-05-30T11:01:18.343Z,5.87
2019-05-30T11:03:50.373Z,8.83
2019-05-30T11:06:34.493Z,2.75
2019-05-30T11:09:06.516Z,2.37
2019-05-30T11:11:37.859Z,5.53
2019-05-30T11:14:09.399Z,4.17
2019-05-30T11:16:41.176Z,2.67
2019-05-30T11:19:12.967Z,3.40
2019-05-30T11:21:44.727Z,3.62
2019-05-30T11:24:16.503Z,2.52
2019-05-30T11:26:50.449Z,7.08
2019-05-30T11:29:21.525Z,4.12
2019-05-30T11:31:54.937Z,4.80
2019-05-30T11:34:26.801Z,2.40
2019-05-30T11:36:59.334Z,4.65
2019-05-30T11:39:31.686Z,6.80
2019-05-30T11:42:03.448Z,11.60
2019-05-30T11:44:35.236Z,4.90
2019-05-30T11:47:07.114Z,2.65
2019-05-30T11:49:38.792Z,5.58
2019-05-30T11:52:10.649Z,4.08
2019-05-30T11:54:42.444Z,2.65
2019-05-30T11:57:14.423Z,5.00
2019-05-30T11:59:46.205Z,2.05
2019-05-30T12:02:18.078Z,4.10
2019-05-30T12:04:50.524Z,3.55
2019-05-30T12:07:35.683Z,10.98
2019-05-30T12:09:56.902Z,3.42
2019-05-30T12:12:28.544Z,17.98
2019-05-30T12:15:01.492Z,4.62
2019-05-30T12:17:33.240Z,2.87
2019-05-30T12:20:06.103Z,8.43
2019-05-30T12:22:37.601Z,7.80
2019-05-30T12:25:09.545Z,5.55
2019-05-30T12:27:41.074Z,4.83
2019-05-30T12:30:13.526Z,2.60
2019-05-30T12:32:45.026Z,2.52
2019-05-30T12:35:17.210Z,3.40
2019-05-30T12:37:54.819Z,5.15
2019-05-30T12:40:22.077Z,3.22
2019-05-30T12:49:27.938Z,9.75
2019-05-30T12:52:00.614Z,3.70
2019-05-30T12:54:32.314Z,4.95
2019-05-30T12:57:04.286Z,8.63
2019-05-30T12:59:35.906Z,9.68
2019-05-30T13:02:07.740Z,11.75
2019-05-30T13:04:40.335Z,8.18
2019-05-30T13:07:11.913Z,3.58
2019-05-30T13:09:43.787Z,12.88
2019-05-30T13:12:15.674Z,6.78
2019-05-30T13:14:47.527Z,11.85
2019-05-30T13:17:20.131Z,6.83
2019-05-30T13:19:51.610Z,8.18
2019-05-30T13:22:25.123Z,6.28
2019-05-30T13:24:57.525Z,6.80
2019-05-30T13:27:29.270Z,5.87
2019-05-30T13:30:02.270Z,6.00
2019-05-30T13:32:35.279Z,3.75
2019-05-30T13:35:08.192Z,6.50
2019-05-30T13:37:40.490Z,3.02
2019-05-30T13:40:24.193Z,5.53
2019-05-30T13:42:46.294Z,6.85
2019-05-30T13:45:18.787Z,11.53
2019-05-30T13:47:50.561Z,4.92
2019-05-30T13:50:22.934Z,5.35
2019-05-30T13:52:54.734Z,3.70
2019-05-30T13:55:28.266Z,4.20
2019-05-30T13:58:00.121Z,5.97
2019-05-30T14:00:31.880Z,22.27
2019-05-30T14:03:04.082Z,9.00
2019-05-30T14:05:35.968Z,6.47
2019-05-30T14:08:10.640Z,7.20
2019-05-30T14:10:41.052Z,7.03
2019-05-30T14:13:12.828Z,3.98
2019-05-30T14:15:44.593Z,4.80
2019-05-30T14:18:19.178Z,3.98
2019-05-30T14:20:51.003Z,5.33
2019-05-30T14:23:22.779Z,3.90
2019-05-30T14:25:54.455Z,4.35
2019-05-30T14:28:26.230Z,10.00
2019-05-30T14:30:58.025Z,6.75
2019-05-30T14:33:29.701Z,8.08
2019-05-30T14:36:04.591Z,9.70
2019-05-30T14:38:34.709Z,7.87
2019-05-30T14:41:06.959Z,8.70
2019-05-30T14:43:38.859Z,10.43
2019-05-30T14:46:10.628Z,6.45
2019-05-30T14:48:42.080Z,6.80
2019-05-30T14:51:13.874Z,28.12
2019-05-30T14:53:45.636Z,6.75
2019-05-30T14:56:17.640Z,16.30
2019-05-30T14:58:49.454Z,17.37
2019-05-30T15:01:21.290Z,13.20
2019-05-30T15:03:52.961Z,9.05
2019-05-30T15:06:24.843Z,10.90
2019-05-30T15:08:56.620Z,14.13
2019-05-30T15:11:28.479Z,8.35
2019-05-30T15:14:00.275Z,6.42
2019-05-30T15:16:32.033Z,5.85
2019-05-30T15:19:04.200Z,6.33
2019-05-30T15:21:36.626Z,5.65
2019-05-30T15:24:09.786Z,6.20
2019-05-30T15:26:41.900Z,6.60
2019-05-30T15:29:14.171Z,4.35
2019-05-30T15:31:45.882Z,17.52
2019-05-30T15:34:17.561Z,12.03
2019-05-30T15:36:49.333Z,9.68
2019-05-30T15:39:32.512Z,8.68
2019-05-30T15:41:54.605Z,8.93
2019-05-30T15:44:26.300Z,11.20
2019-05-30T15:46:58.057Z,11.85
2019-05-30T15:49:29.849Z,11.05
2019-05-30T15:52:01.634Z,9.10
2019-05-30T15:54:33.386Z,7.12
2019-05-30T15:57:05.284Z,10.45
2019-05-30T15:59:37.350Z,10.00
2019-05-30T16:02:09.905Z,12.78
2019-05-30T16:04:41.430Z,10.72
2019-05-30T16:07:15.272Z,15.38
2019-05-30T16:09:47.660Z,13.43
2019-05-30T16:12:19.439Z,14.78
2019-05-30T16:14:51.813Z,20.37
2019-05-30T16:17:23.593Z,10.60
2019-05-30T16:19:56.024Z,9.28
2019-05-30T16:22:28.370Z,15.38
2019-05-30T16:25:00.367Z,9.83
2019-05-30T16:27:32.641Z,22.93
2019-05-30T16:30:09.313Z,11.80
2019-05-30T16:32:41.081Z,8.95
2019-05-30T16:35:14.052Z,10.20
2019-05-30T16:37:45.761Z,8.40
2019-05-30T16:40:18.401Z,8.18
2019-05-30T16:42:50.048Z,13.05
2019-05-30T16:45:24.723Z,6.17
2019-05-30T16:47:55.031Z,9.08
2019-05-30T16:57:20.835Z,13.58
2019-05-30T16:59:52.801Z,19.85
2019-05-30T17:02:24.557Z,10.82
2019-05-30T17:04:56.235Z,10.78
2019-05-30T17:07:28.028Z,12.13
2019-05-30T17:09:59.790Z,44.40
2019-05-30T17:12:31.563Z,30.32
2019-05-30T17:15:05.301Z,21.25
2019-05-30T17:17:36.772Z,23.50
2019-05-30T17:20:09.513Z,17.65
2019-05-30T17:22:41.658Z,20.12
2019-05-30T17:25:13.418Z,22.10
2019-05-30T17:27:44.906Z,19.60
2019-05-30T17:30:17.581Z,19.50
2019-05-30T17:32:49.358Z,21.17
2019-05-30T17:35:22.033Z,20.23
2019-05-30T17:37:53.625Z,22.95
2019-05-30T17:40:41.199Z,28.25
2019-05-30T17:42:59.453Z,23.85
2019-05-30T17:45:31.230Z,18.00
2019-05-30T17:48:16.068Z,21.02
2019-05-30T17:50:36.194Z,13.58
2019-05-30T17:53:07.989Z,15.93
2019-05-30T17:55:39.763Z,14.83
2019-05-30T17:58:11.540Z,23.55
2019-05-30T18:00:43.320Z,23.80
2019-05-30T18:03:15.284Z,19.12
2019-05-30T18:05:47.365Z,17.17
2019-05-30T18:08:19.242Z,19.35
2019-05-30T18:10:54.139Z,20.82
2019-05-30T18:13:25.028Z,21.60
2019-05-30T18:15:56.744Z,20.80
2019-05-30T18:18:29.329Z,22.37
2019-05-30T18:21:00.988Z,12.85
2019-05-30T18:23:32.766Z,15.43
2019-05-30T18:26:04.646Z,13.78
2019-05-30T18:28:36.320Z,25.10
2019-05-30T18:31:08.095Z,19.37
2019-05-30T18:33:40.197Z,21.70
2019-05-30T18:36:11.972Z,23.55
2019-05-30T18:38:43.740Z,23.38
2019-05-30T18:41:16.629Z,29.30
2019-05-30T18:43:48.329Z,32.73
2019-05-30T18:46:20.206Z,26.07
2019-05-30T18:48:51.985Z,23.35
2019-05-30T18:51:24.083Z,29.48
2019-05-30T18:53:55.950Z,22.25
2019-05-30T18:56:28.698Z,18.73
2019-05-30T18:59:00.505Z,26.07
2019-05-30T19:01:33.646Z,19.02
2019-05-30T19:04:08.945Z,18.35
2019-05-30T19:06:40.971Z,15.65
2019-05-30T19:09:12.765Z,23.50
2019-05-30T19:11:44.523Z,27.70
2019-05-30T19:14:16.585Z,24.50
2019-05-30T19:16:51.144Z,19.85
2019-05-30T19:19:25.856Z,22.40
2019-05-30T19:21:57.560Z,24.72
2019-05-30T19:24:30.028Z,20.23
2019-05-30T19:27:07.555Z,24.05
2019-05-30T19:29:39.415Z,24.10
2019-05-30T19:32:11.316Z,16.82
2019-05-30T19:34:43.491Z,14.18
2019-05-30T19:37:15.685Z,16.05
2019-05-30T19:39:47.460Z,12.20
2019-05-30T19:42:19.360Z,16.85
2019-05-30T19:44:51.223Z,19.67
2019-05-30T19:47:25.443Z,31.70
2019-05-30T19:49:56.906Z,32.90
2019-05-30T19:52:30.646Z,35.43
2019-05-30T19:55:02.521Z,35.60
2019-05-30T19:57:35.575Z,16.10
2019-05-30T20:00:09.040Z,21.10
2019-05-30T20:02:40.692Z,18.77
2019-05-30T20:05:14.000Z,17.73
2019-05-30T20:07:45.592Z,16.02
2019-05-30T20:10:20.013Z,16.57
2019-05-30T20:12:51.601Z,21.42
2019-05-30T20:15:24.199Z,17.55
2019-05-30T20:17:56.056Z,20.32
2019-05-30T20:20:28.061Z,18.12
2019-05-30T20:23:00.231Z,18.75
2019-05-30T20:25:32.682Z,16.82
2019-05-30T20:28:04.291Z,18.95
2019-05-30T20:30:37.334Z,20.55
2019-05-30T20:33:10.022Z,21.05
2019-05-30T20:35:43.310Z,25.77
2019-05-30T20:38:15.300Z,24.72
2019-05-30T20:40:47.217Z,21.05
2019-05-30T20:43:18.994Z,19.10
2019-05-30T20:45:50.713Z,22.77
2019-05-30T20:48:22.405Z,19.50
2019-05-30T20:50:54.165Z,17.65
2019-05-30T20:53:25.943Z,17.55
2019-05-30T20:55:57.838Z,23.75
2019-05-30T20:58:29.600Z,21.12
2019-05-30T21:01:01.375Z,17.82
2019-05-30T21:03:33.480Z,19.27
2019-05-30T21:06:05.461Z,21.95
2019-05-30T21:08:39.020Z,19.80
2019-05-30T21:11:11.261Z,25.20
2019-05-30T21:13:44.308Z,24.37
2019-05-30T21:16:18.389Z,20.37
2019-05-30T21:18:52.024Z,19.67
2019-05-30T21:21:23.787Z,21.33
2019-05-30T21:23:55.650Z,20.12
2019-05-30T21:26:27.631Z,25.82
2019-05-30T21:28:59.604Z,16.97
2019-05-30T21:31:31.490Z,21.55
2019-05-30T21:34:03.484Z,22.22
2019-05-30T21:36:35.469Z,19.80
2019-05-30T21:39:08.270Z,20.30
2019-05-30T21:41:40.162Z,18.92
2019-05-30T21:44:11.922Z,23.60
2019-05-30T21:46:44.777Z,22.67
2019-05-30T21:49:16.386Z,21.75
2019-05-30T21:51:48.061Z,22.22
2019-05-30T21:54:19.828Z,22.82
2019-05-30T21:56:51.608Z,20.17
2019-05-30T21:59:23.427Z,21.05
2019-05-30T22:01:57.275Z,20.08
2019-05-30T22:04:28.695Z,19.62
2019-05-30T22:07:00.674Z,20.62
2019-05-30T22:09:32.537Z,18.50
2019-05-30T22:12:04.642Z,18.77
2019-05-30T22:14:36.109Z,24.02
2019-05-30T22:17:07.968Z,18.27
2019-05-30T22:19:39.761Z,17.23
2019-05-30T22:22:11.639Z,20.20
2019-05-30T22:24:44.199Z,17.87
2019-05-30T22:27:15.808Z,15.68
2019-05-30T22:29:48.504Z,17.95
2019-05-30T22:32:20.382Z,17.57
2019-05-30T22:34:52.969Z,16.17
2019-05-30T22:37:24.856Z,16.50
2019-05-30T22:39:56.634Z,20.65
2019-05-30T22:42:28.391Z,17.60
2019-05-30T22:45:00.187Z,18.25
2019-05-30T22:47:32.066Z,18.70
2019-05-30T22:50:05.056Z,18.25
2019-05-30T22:52:36.542Z,26.93
2019-05-30T22:55:08.317Z,21.37
2019-05-30T22:57:40.075Z,21.55
2019-05-30T23:00:12.075Z,18.70
2019-05-30T23:02:43.705Z,18.73
2019-05-30T23:05:15.506Z,16.17
2019-05-30T23:07:47.474Z,18.25
2019-05-30T23:10:19.288Z,24.98
2019-05-30T23:12:51.894Z,19.30
2019-05-30T23:15:23.759Z,16.87
2019-05-30T23:17:56.732Z,21.40
2019-05-30T23:20:28.319Z,22.87
2019-05-30T23:23:00.212Z,23.70
2019-05-30T23:25:32.091Z,22.27
2019-05-30T23:28:03.847Z,18.07
2019-05-30T23:30:35.544Z,21.62
2019-05-30T23:33:07.424Z,24.30
2019-05-30T23:35:39.097Z,23.52
2019-05-30T23:38:10.873Z,20.85
2019-05-30T23:40:42.654Z,23.90
2019-05-30T23:43:14.450Z,21.50
2019-05-30T23:45:46.201Z,23.30
2019-05-30T23:48:17.980Z,22.22
2019-05-30T23:50:49.823Z,25.57
2019-05-30T23:53:21.634Z,21.25
2019-05-30T23:55:54.277Z,21.30
2019-05-30T23:58:25.935Z,24.10
